createdAt,value
2022-08-17T00:00:54.114Z,64.62
2022-08-17T00:01:54.232Z,64.62
2022-08-17T00:02:54.291Z,64.62
2022-08-17T00:03:54.360Z,64.62
2022-08-17T00:04:54.491Z,64.62
2022-08-17T00:05:54.575Z,64.62
2022-08-17T00:06:54.612Z,64.62
2022-08-17T00:07:54.709Z,64.62
2022-08-17T00:08:54.782Z,64.62
2022-08-17T00:09:54.875Z,64.72
2022-08-17T00:10:55.003Z,64.72
2022-08-17T00:12:41.924Z,64.72
2022-08-17T00:12:56.455Z,64.83
2022-08-17T00:13:55.998Z,64.83
2022-08-17T00:14:55.272Z,64.83
2022-08-17T00:15:55.344Z,64.83
2022-08-17T00:16:57.375Z,64.86
2022-08-17T00:17:55.515Z,64.86
2022-08-17T00:19:08.004Z,64.95
2022-08-17T00:19:55.690Z,64.95
2022-08-17T00:20:55.779Z,64.95
2022-08-17T00:22:32.032Z,64.95
2022-08-17T00:22:56.032Z,64.95
2022-08-17T00:23:56.026Z,64.95
2022-08-17T00:24:56.115Z,65.05
2022-08-17T00:25:56.182Z,65.05
2022-08-17T00:26:56.271Z,65.05
2022-08-17T00:27:57.143Z,65.05
2022-08-17T00:28:56.427Z,65.16
2022-08-17T00:29:56.562Z,65.16
2022-08-17T00:30:56.588Z,65.16
2022-08-17T00:31:56.662Z,65.16
2022-08-17T00:33:15.526Z,65.16
2022-08-17T00:33:57.651Z,65.16
2022-08-17T00:34:56.928Z,65.16
2022-08-17T00:35:57.005Z,65.05
2022-08-17T00:36:57.084Z,65.05
2022-08-17T00:37:57.191Z,65.05
2022-08-17T00:38:57.243Z,65.16
2022-08-17T00:39:57.468Z,65.05
2022-08-17T00:40:59.142Z,65.05
2022-08-17T00:41:57.454Z,65.05
2022-08-17T00:42:57.556Z,65.05
2022-08-17T00:43:57.592Z,65.05
2022-08-17T00:44:57.719Z,65.05
2022-08-17T00:45:57.757Z,64.95
2022-08-17T00:46:57.839Z,64.95
2022-08-17T00:47:57.943Z,65.05
2022-08-17T00:48:58.037Z,65.05
2022-08-17T00:49:58.110Z,65.05
2022-08-17T00:50:58.201Z,65.05
2022-08-17T00:51:58.272Z,65.05
2022-08-17T00:52:58.462Z,65.05
2022-08-17T00:53:58.454Z,65.05
2022-08-17T00:54:58.488Z,65.05
2022-08-17T00:55:58.563Z,65.05
2022-08-17T00:56:58.681Z,64.95
2022-08-17T00:57:58.757Z,64.95
2022-08-17T00:58:58.799Z,64.86
2022-08-17T01:01:09.235Z,64.75
2022-08-17T01:02:10.199Z,64.65
2022-08-17T01:03:10.248Z,64.78
2022-08-17T01:04:10.327Z,64.78
2022-08-17T01:05:10.441Z,64.89
2022-08-17T01:06:10.495Z,64.98
2022-08-17T01:07:10.589Z,64.98
2022-08-17T01:08:10.721Z,64.98
2022-08-17T01:09:10.809Z,64.98
2022-08-17T01:10:59.176Z,64.98
2022-08-17T01:11:10.924Z,64.98
2022-08-17T01:12:11.006Z,64.98
2022-08-17T01:13:11.152Z,65.09
2022-08-17T01:14:11.196Z,65.09
2022-08-17T01:15:11.262Z,65.19
2022-08-17T01:16:11.338Z,65.19
2022-08-17T01:17:11.409Z,65.19
2022-08-17T01:18:11.519Z,65.09
2022-08-17T01:19:11.543Z,65.09
2022-08-17T01:20:11.636Z,64.98
2022-08-17T01:21:11.741Z,64.89
2022-08-17T01:22:11.788Z,64.89
2022-08-17T01:23:11.861Z,64.89
2022-08-17T01:24:11.939Z,64.98
2022-08-17T01:25:12.105Z,64.89
2022-08-17T01:26:12.113Z,64.89
2022-08-17T01:27:12.193Z,64.89
2022-08-17T01:28:12.300Z,64.89
2022-08-17T01:29:12.479Z,64.89
2022-08-17T01:30:57.270Z,64.98
2022-08-17T01:31:12.538Z,64.98
2022-08-17T01:32:12.607Z,64.98
2022-08-17T01:33:12.773Z,64.98
2022-08-17T01:34:14.128Z,64.89
2022-08-17T01:35:12.849Z,64.89
2022-08-17T01:36:12.939Z,64.89
2022-08-17T01:37:13.033Z,64.89
2022-08-17T01:38:13.139Z,64.89
2022-08-17T01:39:13.206Z,64.98
2022-08-17T01:40:13.359Z,64.98
2022-08-17T01:41:13.396Z,65.09
2022-08-17T01:42:13.490Z,65.09
2022-08-17T01:43:13.577Z,65.19
2022-08-17T01:44:13.629Z,65.09
2022-08-17T01:45:13.706Z,65.09
2022-08-17T01:46:13.779Z,65.09
2022-08-17T01:47:13.852Z,65.09
2022-08-17T01:48:13.958Z,65.09
2022-08-17T01:49:14.027Z,64.98
2022-08-17T01:50:14.121Z,64.92
2022-08-17T01:51:14.200Z,65.01
2022-08-17T01:52:14.275Z,65.01
2022-08-17T01:53:14.416Z,65.01
2022-08-17T01:54:14.484Z,65.01
2022-08-17T01:55:14.508Z,65.01
2022-08-17T01:56:14.593Z,65.12
2022-08-17T01:57:14.663Z,65.01
2022-08-17T01:58:14.778Z,65.12
2022-08-17T01:59:14.805Z,65.12
2022-08-17T02:00:14.869Z,65.22
2022-08-17T02:01:15.040Z,65.12
2022-08-17T02:02:31.358Z,65.12
2022-08-17T02:03:15.140Z,65.22
2022-08-17T02:04:15.194Z,65.31
2022-08-17T02:05:15.296Z,65.31
2022-08-17T02:06:27.079Z,65.31
2022-08-17T02:07:15.414Z,65.31
2022-08-17T02:08:19.720Z,65.31
2022-08-17T02:09:16.443Z,65.31
2022-08-17T02:10:18.239Z,65.22
2022-08-17T02:11:15.774Z,65.22
2022-08-17T02:12:37.829Z,65.22
2022-08-17T02:13:15.938Z,65.31
2022-08-17T02:14:15.995Z,65.31
2022-08-17T02:15:16.095Z,65.31
2022-08-17T02:16:16.169Z,65.31
2022-08-17T02:17:16.255Z,65.22
2022-08-17T02:18:16.346Z,65.12
2022-08-17T02:19:16.456Z,65.25
2022-08-17T02:20:16.489Z,65.25
2022-08-17T02:21:16.572Z,65.25
2022-08-17T02:22:16.637Z,65.25
2022-08-17T02:23:16.747Z,65.35
2022-08-17T02:24:16.778Z,65.45
2022-08-17T02:25:16.867Z,65.45
2022-08-17T02:26:24.029Z,65.45
2022-08-17T02:27:17.026Z,65.35
2022-08-17T02:28:17.137Z,65.35
2022-08-17T02:29:17.176Z,65.45
2022-08-17T02:30:30.908Z,65.45
2022-08-17T02:31:17.334Z,65.55
2022-08-17T02:32:20.825Z,65.55
2022-08-17T02:33:17.500Z,65.55
2022-08-17T02:34:17.579Z,65.55
2022-08-17T02:35:19.986Z,65.55
2022-08-17T02:36:17.748Z,65.45
2022-08-17T02:37:17.817Z,65.55
2022-08-17T02:38:17.914Z,65.55
2022-08-17T02:39:17.983Z,65.55
2022-08-17T02:40:18.080Z,65.55
2022-08-17T02:41:18.207Z,65.55
2022-08-17T02:42:18.246Z,65.65
2022-08-17T02:43:18.334Z,65.65
2022-08-17T02:44:35.403Z,65.65
2022-08-17T02:45:18.494Z,65.65
2022-08-17T02:46:18.575Z,65.55
2022-08-17T02:47:18.669Z,65.55
2022-08-17T02:48:30.529Z,65.45
2022-08-17T02:49:18.846Z,65.45
2022-08-17T02:50:18.889Z,65.45
2022-08-17T02:51:18.972Z,65.25
2022-08-17T02:52:19.069Z,65.25
2022-08-17T02:53:19.205Z,65.35
2022-08-17T02:54:40.267Z,65.25
2022-08-17T02:55:19.356Z,65.35
2022-08-17T02:56:19.418Z,65.45
2022-08-17T02:57:19.452Z,65.38
2022-08-17T02:58:29.601Z,65.28
2022-08-17T02:59:19.631Z,65.28
2022-08-17T03:00:19.700Z,65.28
2022-08-17T03:01:19.815Z,65.38
2022-08-17T03:02:19.838Z,65.38
2022-08-17T03:03:19.929Z,65.38
2022-08-17T03:04:20.053Z,65.48
2022-08-17T03:05:20.082Z,65.48
2022-08-17T03:06:20.192Z,65.48
2022-08-17T03:07:20.231Z,65.38
2022-08-17T03:08:20.389Z,65.28
2022-08-17T03:09:20.383Z,65.18
2022-08-17T03:10:20.471Z,65.08
2022-08-17T03:11:20.552Z,65.21
2022-08-17T03:12:20.623Z,65.21
2022-08-17T03:13:20.752Z,65.21
2022-08-17T03:14:20.782Z,65.31
2022-08-17T03:15:20.869Z,65.31
2022-08-17T03:16:20.945Z,65.31
2022-08-17T03:17:21.076Z,65.31
2022-08-17T03:18:24.678Z,65.21
2022-08-17T03:19:21.184Z,65.21
2022-08-17T03:20:21.331Z,65.21
2022-08-17T03:21:21.372Z,65.31
2022-08-17T03:22:36.972Z,65.31
2022-08-17T03:23:24.063Z,65.31
2022-08-17T03:24:21.614Z,65.31
2022-08-17T03:25:22.713Z,65.41
2022-08-17T03:26:21.785Z,65.41
2022-08-17T03:27:21.872Z,65.41
2022-08-17T03:28:21.971Z,65.31
2022-08-17T03:29:22.049Z,65.34
2022-08-17T03:30:22.115Z,65.44
2022-08-17T03:31:22.187Z,65.54
2022-08-17T03:32:22.267Z,65.54
2022-08-17T03:33:22.465Z,65.64
2022-08-17T03:34:22.445Z,65.64
2022-08-17T03:35:22.520Z,65.64
2022-08-17T03:36:22.652Z,65.74
2022-08-17T03:37:22.704Z,65.97
2022-08-17T03:38:23.186Z,66.08
2022-08-17T03:39:25.186Z,66.17
2022-08-17T03:40:41.836Z,66.17
2022-08-17T03:41:23.068Z,66.28
2022-08-17T03:42:32.948Z,66.28
2022-08-17T03:43:23.257Z,66.24
2022-08-17T03:44:23.290Z,66.24
2022-08-17T03:45:23.355Z,66.24
2022-08-17T03:46:27.624Z,66.24
2022-08-17T03:47:23.516Z,66.24
2022-08-17T03:48:23.625Z,66.24
2022-08-17T03:49:23.655Z,66.24
2022-08-17T03:50:23.732Z,66.24
2022-08-17T03:51:23.815Z,66.24
2022-08-17T03:52:23.895Z,66.24
2022-08-17T03:53:24.019Z,66.24
2022-08-17T03:54:24.080Z,66.14
2022-08-17T03:55:35.850Z,66.24
2022-08-17T03:56:24.297Z,66.14
2022-08-17T03:57:24.328Z,66.05
2022-08-17T03:58:24.466Z,65.94
2022-08-17T03:59:24.530Z,65.84
2022-08-17T04:00:24.599Z,65.84
2022-08-17T04:01:24.760Z,65.94
2022-08-17T04:02:24.764Z,65.97
2022-08-17T04:03:24.866Z,66.08
2022-08-17T04:04:27.775Z,66.08
2022-08-17T04:05:25.030Z,66.17
2022-08-17T04:06:25.102Z,66.17
2022-08-17T04:07:25.205Z,66.17
2022-08-17T04:08:25.284Z,66.17
2022-08-17T04:09:25.379Z,66.17
2022-08-17T04:10:26.529Z,66.28
2022-08-17T04:11:25.519Z,66.24
2022-08-17T04:12:25.598Z,66.24
2022-08-17T04:13:25.773Z,66.24
2022-08-17T04:14:25.749Z,66.24
2022-08-17T04:15:25.866Z,66.14
2022-08-17T04:16:25.942Z,66.24
2022-08-17T04:17:26.015Z,66.24
2022-08-17T04:18:26.080Z,66.24
2022-08-17T04:19:26.139Z,66.24
2022-08-17T04:20:26.225Z,66.24
2022-08-17T04:21:26.310Z,66.24
2022-08-17T04:22:32.508Z,66.24
2022-08-17T04:23:26.479Z,66.28
2022-08-17T04:24:26.556Z,66.28
2022-08-17T04:25:26.591Z,66.38
2022-08-17T04:26:52.676Z,66.38
2022-08-17T04:27:26.751Z,66.38
2022-08-17T04:28:26.837Z,66.38
2022-08-17T04:29:26.919Z,66.38
2022-08-17T04:30:27.085Z,66.38
2022-08-17T04:31:27.111Z,66.38
2022-08-17T04:33:05.147Z,66.38
2022-08-17T04:33:27.245Z,66.28
2022-08-17T04:34:27.303Z,66.17
2022-08-17T04:35:27.357Z,66.28
2022-08-17T04:36:27.427Z,66.28
2022-08-17T04:37:27.507Z,66.28
2022-08-17T04:38:27.599Z,66.28
2022-08-17T04:39:27.769Z,66.28
2022-08-17T04:40:27.765Z,66.28
2022-08-17T04:41:27.872Z,66.28
2022-08-17T04:42:27.918Z,66.17
2022-08-17T04:43:28.062Z,66.17
2022-08-17T04:44:37.450Z,66.17
2022-08-17T04:45:28.175Z,66.17
2022-08-17T04:46:28.247Z,66.28
2022-08-17T04:47:28.326Z,66.38
2022-08-17T04:48:36.564Z,66.28
2022-08-17T04:49:28.505Z,66.28
2022-08-17T04:50:28.608Z,66.38
2022-08-17T04:51:29.564Z,66.38
2022-08-17T04:52:29.641Z,66.47
2022-08-17T04:53:28.872Z,66.47
2022-08-17T04:54:28.941Z,66.58
2022-08-17T04:55:28.976Z,66.58
2022-08-17T04:56:29.091Z,66.58
2022-08-17T04:57:29.164Z,66.67
2022-08-17T04:58:29.238Z,66.67
2022-08-17T04:59:29.270Z,66.67
2022-08-17T05:00:29.351Z,66.78
2022-08-17T05:01:29.522Z,66.78
2022-08-17T05:02:29.620Z,66.78
2022-08-17T05:03:29.638Z,66.88
2022-08-17T05:04:33.626Z,67.11
2022-08-17T05:05:29.787Z,67.11
2022-08-17T05:06:29.868Z,67.21
2022-08-17T05:07:31.666Z,67.31
2022-08-17T05:08:30.040Z,67.41
2022-08-17T05:09:30.124Z,67.41
2022-08-17T05:10:30.203Z,67.51
2022-08-17T05:11:30.277Z,67.51
2022-08-17T05:12:30.384Z,67.61
2022-08-17T05:13:30.440Z,67.71
2022-08-17T05:14:32.879Z,67.71
2022-08-17T05:15:32.965Z,67.82
2022-08-17T05:16:30.694Z,68.02
2022-08-17T05:17:30.994Z,68.41
2022-08-17T05:18:30.879Z,68.72
2022-08-17T05:19:30.992Z,68.65
2022-08-17T05:20:31.024Z,68.55
2022-08-17T05:21:31.108Z,68.75
2022-08-17T05:22:31.180Z,68.85
2022-08-17T05:23:35.532Z,68.95
2022-08-17T05:24:42.489Z,68.85
2022-08-17T05:25:31.648Z,68.95
2022-08-17T05:26:32.227Z,69.09
2022-08-17T05:27:35.435Z,69.18
2022-08-17T05:28:34.328Z,69.18
2022-08-17T05:29:33.607Z,69.18
2022-08-17T05:30:31.850Z,69.29
2022-08-17T05:31:31.943Z,69.29
2022-08-17T05:32:38.417Z,69.29
2022-08-17T05:33:32.134Z,69.29
2022-08-17T05:34:32.201Z,69.29
2022-08-17T05:35:32.240Z,69.38
2022-08-17T05:36:42.199Z,69.35
2022-08-17T05:37:32.393Z,69.35
2022-08-17T05:38:32.527Z,69.35
2022-08-17T05:39:32.620Z,69.45
2022-08-17T05:40:33.291Z,69.45
2022-08-17T05:41:32.782Z,69.56
2022-08-17T05:42:32.809Z,69.56
2022-08-17T05:43:32.917Z,69.45
2022-08-17T05:44:32.963Z,69.56
2022-08-17T05:45:55.829Z,69.56
2022-08-17T05:46:33.099Z,69.56
2022-08-17T05:47:33.188Z,69.56
2022-08-17T05:48:35.490Z,69.45
2022-08-17T05:49:33.330Z,69.45
2022-08-17T05:50:33.438Z,69.52
2022-08-17T05:51:33.488Z,69.62
2022-08-17T05:52:33.564Z,69.62
2022-08-17T05:53:35.226Z,69.62
2022-08-17T05:54:33.739Z,69.62
2022-08-17T05:55:33.818Z,69.72
2022-08-17T05:56:33.895Z,69.72
2022-08-17T05:57:33.979Z,69.82
2022-08-17T05:58:34.105Z,70.03
2022-08-17T05:59:34.148Z,69.92
2022-08-17T06:00:34.221Z,70.03
2022-08-17T06:01:34.409Z,70.23
2022-08-17T06:02:34.373Z,70.53
2022-08-17T06:03:34.472Z,70.73
2022-08-17T06:04:34.555Z,70.93
2022-08-17T06:05:34.626Z,71.03
2022-08-17T06:06:34.702Z,71.09
2022-08-17T06:07:34.795Z,71.09
2022-08-17T06:08:34.890Z,71.20
2022-08-17T06:09:35.009Z,71.50
2022-08-17T06:10:35.049Z,71.60
2022-08-17T06:11:35.291Z,71.60
2022-08-17T06:12:35.218Z,71.50
2022-08-17T06:13:35.356Z,71.60
2022-08-17T06:14:35.385Z,71.50
2022-08-17T06:15:35.459Z,71.60
2022-08-17T06:16:35.544Z,71.70
2022-08-17T06:17:35.626Z,71.60
2022-08-17T06:18:35.738Z,71.00
2022-08-17T06:19:35.786Z,70.66
2022-08-17T06:20:36.749Z,70.56
2022-08-17T06:21:35.971Z,70.36
2022-08-17T06:22:36.044Z,69.46
2022-08-17T06:23:36.134Z,68.05
2022-08-17T06:24:36.264Z,67.95
2022-08-17T06:25:36.300Z,67.82
2022-08-17T06:26:38.516Z,66.71
2022-08-17T06:27:37.309Z,66.31
2022-08-17T06:28:36.548Z,65.71
2022-08-17T06:29:36.635Z,65.68
2022-08-17T06:30:59.944Z,65.68
2022-08-17T06:31:36.854Z,65.28
2022-08-17T06:32:36.852Z,64.75
2022-08-17T06:33:36.953Z,64.75
2022-08-17T06:34:37.022Z,64.75
2022-08-17T06:35:37.124Z,64.54
2022-08-17T06:36:37.235Z,64.31
2022-08-17T06:37:37.331Z,64.42
2022-08-17T06:38:38.816Z,64.51
2022-08-17T06:39:37.583Z,64.62
2022-08-17T06:40:37.512Z,64.42
2022-08-17T06:41:38.118Z,64.09
2022-08-17T06:43:04.089Z,64.18
2022-08-17T06:43:37.800Z,64.18
2022-08-17T06:44:50.226Z,63.68
2022-08-17T06:45:37.916Z,63.48
2022-08-17T06:46:37.998Z,63.08
2022-08-17T06:47:38.074Z,62.78
2022-08-17T06:48:38.197Z,63.18
2022-08-17T06:49:38.234Z,63.28
2022-08-17T06:50:38.348Z,62.75
2022-08-17T06:51:38.416Z,62.85
2022-08-17T06:52:45.423Z,63.06
2022-08-17T06:53:38.569Z,62.95
2022-08-17T06:54:38.604Z,62.85
2022-08-17T06:55:38.684Z,62.95
2022-08-17T06:56:53.280Z,63.15
2022-08-17T06:57:38.911Z,62.75
2022-08-17T06:58:40.282Z,62.95
2022-08-17T06:59:55.141Z,63.06
2022-08-17T07:00:39.127Z,63.06
2022-08-17T07:01:39.294Z,63.02
2022-08-17T07:02:51.253Z,63.32
2022-08-17T07:03:39.335Z,63.22
2022-08-17T07:04:39.405Z,63.12
2022-08-17T07:05:39.519Z,62.92
2022-08-17T07:06:39.585Z,62.92
2022-08-17T07:07:39.669Z,63.12
2022-08-17T07:08:39.786Z,63.02
2022-08-17T07:09:39.839Z,62.92
2022-08-17T07:10:39.930Z,62.92
2022-08-17T07:11:39.994Z,63.02
2022-08-17T07:12:40.109Z,63.19
2022-08-17T07:13:40.150Z,62.99
2022-08-17T07:14:40.238Z,62.99
2022-08-17T07:15:40.323Z,62.79
2022-08-17T07:16:40.446Z,62.70
2022-08-17T07:17:48.121Z,62.59
2022-08-17T07:18:40.561Z,62.79
2022-08-17T07:19:40.654Z,62.59
2022-08-17T07:20:40.778Z,62.70
2022-08-17T07:21:40.917Z,62.99
2022-08-17T07:22:55.263Z,62.49
2022-08-17T07:23:41.020Z,61.99
2022-08-17T07:24:41.060Z,62.09
2022-08-17T07:25:41.191Z,61.69
2022-08-17T07:26:41.235Z,61.79
2022-08-17T07:27:41.320Z,61.99
2022-08-17T07:28:41.400Z,62.26
2022-08-17T07:29:41.572Z,61.96
2022-08-17T07:30:45.880Z,62.06
2022-08-17T07:31:41.659Z,62.06
2022-08-17T07:32:41.733Z,62.16
2022-08-17T07:33:41.832Z,62.37
2022-08-17T07:34:41.932Z,62.06
2022-08-17T07:35:44.199Z,61.16
2022-08-17T07:36:42.121Z,61.07
2022-08-17T07:37:42.342Z,61.13
2022-08-17T07:38:42.309Z,61.04
2022-08-17T07:39:59.698Z,61.24
2022-08-17T07:40:42.552Z,61.43
2022-08-17T07:41:57.954Z,61.13
2022-08-17T07:42:45.084Z,61.04
2022-08-17T07:43:42.753Z,61.24
2022-08-17T07:44:42.864Z,61.04
2022-08-17T07:45:42.871Z,61.04
2022-08-17T07:46:42.977Z,61.04
2022-08-17T07:47:43.087Z,61.00
2022-08-17T07:48:43.097Z,61.10
2022-08-17T07:49:43.202Z,61.10
2022-08-17T07:50:43.246Z,60.91
2022-08-17T07:51:43.329Z,60.61
2022-08-17T07:52:51.127Z,60.71
2022-08-17T07:53:43.481Z,60.80
2022-08-17T07:54:43.588Z,60.80
2022-08-17T07:55:43.631Z,60.80
2022-08-17T07:56:43.717Z,60.80
2022-08-17T07:57:43.922Z,60.80
2022-08-17T07:58:43.889Z,60.91
2022-08-17T07:59:43.984Z,60.91
2022-08-17T08:00:44.062Z,60.71
2022-08-17T08:01:44.170Z,60.48
2022-08-17T08:02:44.240Z,60.17
2022-08-17T08:03:44.315Z,60.08
2022-08-17T08:05:01.371Z,59.48
2022-08-17T08:05:44.513Z,59.18
2022-08-17T08:06:44.584Z,59.58
2022-08-17T08:07:44.663Z,59.98
2022-08-17T08:08:44.741Z,60.08
2022-08-17T08:09:44.955Z,59.68
2022-08-17T08:10:45.315Z,59.68
2022-08-17T08:11:44.978Z,59.98
2022-08-17T08:12:53.678Z,60.28
2022-08-17T08:13:45.151Z,60.15
2022-08-17T08:14:45.301Z,60.15
2022-08-17T08:15:53.507Z,60.25
2022-08-17T08:16:45.388Z,60.25
2022-08-17T08:17:45.464Z,60.15
2022-08-17T08:18:55.915Z,60.45
2022-08-17T08:19:45.647Z,60.15
2022-08-17T08:20:52.120Z,59.85
2022-08-17T08:21:45.765Z,59.55
2022-08-17T08:22:45.860Z,59.65
2022-08-17T08:23:45.960Z,59.85
2022-08-17T08:24:46.052Z,60.15
2022-08-17T08:25:48.784Z,60.15
2022-08-17T08:26:46.210Z,60.35
2022-08-17T08:27:46.283Z,60.25
2022-08-17T08:28:46.392Z,60.12
2022-08-17T08:29:46.522Z,60.12
2022-08-17T08:30:46.562Z,60.02
2022-08-17T08:31:46.646Z,59.92
2022-08-17T08:32:46.743Z,59.82
2022-08-17T08:33:46.833Z,59.62
2022-08-17T08:35:01.174Z,59.82
2022-08-17T08:35:47.001Z,60.02
2022-08-17T08:37:12.700Z,60.12
2022-08-17T08:37:47.166Z,60.22
2022-08-17T08:38:47.239Z,60.12
2022-08-17T08:39:47.444Z,60.22
2022-08-17T08:40:47.429Z,60.22
2022-08-17T08:41:47.469Z,60.32
2022-08-17T08:42:47.564Z,60.52
2022-08-17T08:43:52.343Z,60.42
2022-08-17T08:44:59.495Z,60.32
2022-08-17T08:45:47.815Z,60.12
2022-08-17T08:46:47.893Z,59.92
2022-08-17T08:47:48.118Z,59.52
2022-08-17T08:48:55.804Z,59.72
2022-08-17T08:50:05.043Z,60.12
2022-08-17T08:50:48.234Z,59.82
2022-08-17T08:51:48.269Z,59.62
2022-08-17T08:52:48.351Z,59.62
2022-08-17T08:53:48.439Z,59.82
2022-08-17T08:54:48.582Z,59.82
2022-08-17T08:55:48.577Z,59.82
2022-08-17T08:57:19.243Z,59.59
2022-08-17T08:57:48.820Z,59.39
2022-08-17T08:58:48.831Z,59.30
2022-08-17T08:59:57.889Z,59.30
2022-08-17T09:00:49.025Z,59.30
2022-08-17T09:01:49.200Z,59.30
2022-08-17T09:02:49.162Z,59.19
2022-08-17T09:03:53.095Z,59.00
2022-08-17T09:05:13.058Z,59.09
2022-08-17T09:05:49.440Z,59.09
2022-08-17T09:06:49.527Z,58.80
2022-08-17T09:07:49.817Z,58.89
2022-08-17T09:08:49.730Z,59.09
2022-08-17T09:09:49.767Z,59.19
2022-08-17T09:10:49.889Z,59.30
2022-08-17T09:12:01.952Z,59.09
2022-08-17T09:12:50.024Z,59.39
2022-08-17T09:13:54.667Z,59.49
2022-08-17T09:14:50.203Z,59.09
2022-08-17T09:15:50.229Z,59.00
2022-08-17T09:16:50.302Z,59.09
2022-08-17T09:17:59.368Z,59.39
2022-08-17T09:19:03.501Z,59.39
2022-08-17T09:19:50.573Z,59.30
2022-08-17T09:20:50.634Z,59.30
2022-08-17T09:21:51.338Z,59.27
2022-08-17T09:22:50.771Z,59.27
2022-08-17T09:23:50.888Z,59.17
2022-08-17T09:24:50.982Z,59.36
2022-08-17T09:25:51.021Z,59.36
2022-08-17T09:26:51.113Z,59.47
2022-08-17T09:27:51.534Z,59.36
2022-08-17T09:28:51.291Z,58.97
2022-08-17T09:29:51.394Z,59.06
2022-08-17T09:30:51.455Z,58.67
2022-08-17T09:31:51.535Z,58.57
2022-08-17T09:32:51.633Z,58.57
2022-08-17T09:33:51.678Z,58.64
2022-08-17T09:34:51.784Z,58.76
2022-08-17T09:35:51.834Z,58.34
2022-08-17T09:36:51.916Z,58.34
2022-08-17T09:37:52.283Z,58.54
2022-08-17T09:38:52.091Z,58.44
2022-08-17T09:39:52.170Z,58.14
2022-08-17T09:40:52.227Z,58.34
2022-08-17T09:41:52.287Z,58.54
2022-08-17T09:42:53.336Z,58.64
2022-08-17T09:43:52.473Z,58.64
2022-08-17T09:44:52.573Z,58.74
2022-08-17T09:45:52.601Z,58.84
2022-08-17T09:46:52.664Z,58.64
2022-08-17T09:47:53.012Z,58.64
2022-08-17T09:48:52.820Z,58.44
2022-08-17T09:49:52.960Z,58.54
2022-08-17T09:50:55.564Z,58.64
2022-08-17T09:51:53.069Z,58.14
2022-08-17T09:52:53.164Z,57.75
2022-08-17T09:53:53.288Z,57.75
2022-08-17T09:54:53.335Z,57.45
2022-08-17T09:55:53.406Z,57.35
2022-08-17T09:57:18.125Z,57.35
2022-08-17T09:57:53.565Z,57.45
2022-08-17T09:58:53.651Z,57.62
2022-08-17T09:59:53.775Z,58.01
2022-08-17T10:00:53.864Z,58.31
2022-08-17T10:01:53.905Z,58.41
2022-08-17T10:02:53.982Z,58.41
2022-08-17T10:03:54.048Z,58.41
2022-08-17T10:04:54.142Z,58.31
2022-08-17T10:05:56.814Z,58.22
2022-08-17T10:06:54.296Z,58.41
2022-08-17T10:07:54.392Z,58.31
2022-08-17T10:08:54.424Z,58.41
2022-08-17T10:09:54.534Z,58.31
2022-08-17T10:10:56.679Z,58.11
2022-08-17T10:11:54.653Z,58.01
2022-08-17T10:12:54.711Z,58.01
2022-08-17T10:13:54.768Z,58.31
2022-08-17T10:14:55.156Z,58.09
2022-08-17T10:15:55.006Z,58.09
2022-08-17T10:16:55.043Z,57.79
2022-08-17T10:17:55.116Z,57.39
2022-08-17T10:18:55.198Z,57.29
2022-08-17T10:19:55.305Z,57.19
2022-08-17T10:20:55.391Z,57.29
2022-08-17T10:22:00.913Z,57.09
2022-08-17T10:22:55.600Z,57.29
2022-08-17T10:23:55.673Z,57.39
2022-08-17T10:25:21.525Z,57.39
2022-08-17T10:25:56.096Z,57.49
2022-08-17T10:26:56.494Z,57.79
2022-08-17T10:27:56.813Z,58.09
2022-08-17T10:28:56.034Z,57.99
2022-08-17T10:29:56.128Z,57.76
2022-08-17T10:31:16.683Z,57.66
2022-08-17T10:31:56.281Z,57.86
2022-08-17T10:32:56.401Z,57.46
2022-08-17T10:33:56.457Z,57.17
2022-08-17T10:34:56.615Z,57.36
2022-08-17T10:35:57.223Z,57.56
2022-08-17T10:36:56.683Z,57.66
2022-08-17T10:37:56.766Z,58.16
2022-08-17T10:38:56.842Z,58.06
2022-08-17T10:39:56.957Z,57.96
2022-08-17T10:40:56.978Z,57.73
2022-08-17T10:41:57.077Z,57.73
2022-08-17T10:42:57.159Z,57.43
2022-08-17T10:44:39.723Z,57.24
2022-08-17T10:44:57.340Z,56.74
2022-08-17T10:46:21.343Z,56.74
2022-08-17T10:46:57.536Z,56.84
2022-08-17T10:48:02.566Z,56.94
2022-08-17T10:48:57.669Z,56.74
2022-08-17T10:49:57.776Z,56.54
2022-08-17T10:50:57.815Z,56.14
2022-08-17T10:51:57.892Z,55.94
2022-08-17T10:52:58.009Z,55.85
2022-08-17T10:53:58.025Z,56.04
2022-08-17T10:54:58.967Z,56.27
2022-08-17T10:55:58.239Z,56.47
2022-08-17T10:56:58.281Z,56.57
2022-08-17T10:57:58.372Z,56.27
2022-08-17T10:58:58.440Z,56.27
2022-08-17T10:59:58.572Z,56.37
2022-08-17T11:00:58.716Z,56.57
2022-08-17T11:01:58.688Z,57.06
2022-08-17T11:02:58.799Z,57.66
2022-08-17T11:03:58.839Z,57.96
2022-08-17T11:04:58.953Z,57.86
2022-08-17T11:05:59.005Z,58.06
2022-08-17T11:06:59.065Z,58.45
2022-08-17T11:07:59.149Z,58.26
2022-08-17T11:08:59.242Z,58.16
2022-08-17T11:09:59.337Z,57.56
2022-08-17T11:10:59.419Z,57.76
2022-08-17T11:11:59.530Z,57.66
2022-08-17T11:12:59.571Z,57.76
2022-08-17T11:13:59.643Z,58.06
2022-08-17T11:14:59.736Z,58.36
2022-08-17T11:16:02.434Z,58.86
2022-08-17T11:17:00.052Z,59.05
2022-08-17T11:17:59.992Z,59.25
2022-08-17T11:19:00.069Z,58.75
2022-08-17T11:20:00.203Z,58.45
2022-08-17T11:21:00.230Z,58.06
2022-08-17T11:22:00.322Z,57.66
2022-08-17T11:23:00.388Z,57.56
2022-08-17T11:24:00.463Z,57.56
2022-08-17T11:25:00.587Z,57.66
2022-08-17T11:26:00.646Z,57.96
2022-08-17T11:27:00.723Z,57.96
2022-08-17T11:28:00.836Z,57.86
2022-08-17T11:29:00.904Z,58.03
2022-08-17T11:30:02.568Z,58.43
2022-08-17T11:31:01.087Z,58.33
2022-08-17T11:32:01.159Z,58.23
2022-08-17T11:33:01.309Z,58.43
2022-08-17T11:34:01.889Z,58.83
2022-08-17T11:35:01.432Z,58.73
2022-08-17T11:36:01.472Z,58.62
2022-08-17T11:37:01.573Z,58.62
2022-08-17T11:38:01.634Z,58.62
2022-08-17T11:39:01.717Z,58.56
2022-08-17T11:40:01.958Z,58.26
2022-08-17T11:41:01.882Z,58.36
2022-08-17T11:42:01.951Z,58.45
2022-08-17T11:43:02.058Z,58.56
2022-08-17T11:44:02.163Z,58.06
2022-08-17T11:45:02.208Z,57.96
2022-08-17T11:46:02.306Z,58.06
2022-08-17T11:47:02.376Z,58.06
2022-08-17T11:48:26.502Z,58.06
2022-08-17T11:49:02.548Z,58.06
2022-08-17T11:50:02.638Z,58.16
2022-08-17T11:51:02.722Z,58.26
2022-08-17T11:52:02.792Z,58.36
2022-08-17T11:53:02.872Z,58.45
2022-08-17T11:54:31.091Z,58.45
2022-08-17T11:55:31.468Z,58.36
2022-08-17T11:56:03.120Z,58.45
2022-08-17T11:57:03.238Z,58.56
2022-08-17T11:58:03.310Z,58.56
2022-08-17T11:59:03.359Z,58.56
2022-08-17T12:00:03.516Z,58.75
2022-08-17T12:01:03.573Z,58.95
2022-08-17T12:02:03.579Z,58.95
2022-08-17T12:03:03.857Z,58.65
2022-08-17T12:04:03.769Z,58.56
2022-08-17T12:05:03.853Z,58.86
2022-08-17T12:06:03.889Z,58.75
2022-08-17T12:07:03.963Z,58.56
2022-08-17T12:08:04.046Z,58.45
2022-08-17T12:09:04.136Z,58.33
2022-08-17T12:10:04.201Z,58.33
2022-08-17T12:11:04.253Z,58.23
2022-08-17T12:12:13.207Z,58.23
2022-08-17T12:13:04.406Z,58.33
2022-08-17T12:14:04.532Z,58.23
2022-08-17T12:15:12.407Z,58.13
2022-08-17T12:16:04.698Z,58.03
2022-08-17T12:17:04.865Z,57.93
2022-08-17T12:18:04.844Z,58.23
2022-08-17T12:19:04.896Z,58.03
2022-08-17T12:20:05.012Z,57.93
2022-08-17T12:21:05.071Z,58.03
2022-08-17T12:22:05.141Z,58.73
2022-08-17T12:23:05.213Z,58.62
2022-08-17T12:24:05.378Z,58.73
2022-08-17T12:25:05.407Z,58.62
2022-08-17T12:26:05.538Z,58.83
2022-08-17T12:27:05.566Z,58.62
2022-08-17T12:28:07.578Z,58.43
2022-08-17T12:29:05.706Z,58.10
2022-08-17T12:30:05.802Z,58.00
2022-08-17T12:31:05.913Z,57.70
2022-08-17T12:32:05.982Z,57.60
2022-08-17T12:33:06.075Z,57.81
2022-08-17T12:34:06.160Z,57.81
2022-08-17T12:35:06.284Z,58.10
2022-08-17T12:36:06.395Z,57.81
2022-08-17T12:37:06.405Z,57.81
2022-08-17T12:38:06.478Z,57.11
2022-08-17T12:39:13.772Z,57.11
2022-08-17T12:40:06.814Z,57.21
2022-08-17T12:41:06.710Z,57.31
2022-08-17T12:42:06.792Z,57.21
2022-08-17T12:43:06.894Z,57.11
2022-08-17T12:44:06.948Z,57.21
2022-08-17T12:45:07.046Z,57.01
2022-08-17T12:46:13.306Z,56.61
2022-08-17T12:47:07.225Z,56.71
2022-08-17T12:48:07.268Z,56.61
2022-08-17T12:49:07.356Z,56.51
2022-08-17T12:50:07.451Z,56.71
2022-08-17T12:51:07.556Z,56.98
2022-08-17T12:52:07.636Z,56.88
2022-08-17T12:53:07.701Z,57.08
2022-08-17T12:54:07.792Z,57.28
2022-08-17T12:55:07.914Z,57.48